sensor_id;sensor_type;location;lat;lon;timestamp;P1;durP1;ratioP1;P2;durP2;ratioP2
23078;SDS011;11707;50.830;4.364;2023-04-30T00:01:19;16.63;;;11.55;;
23078;SDS011;11707;50.830;4.364;2023-04-30T00:03:45;17.13;;;10.68;;
23078;SDS011;11707;50.830;4.364;2023-04-30T00:06:10;17.05;;;10.18;;
23078;SDS011;11707;50.830;4.364;2023-04-30T00:08:36;15.48;;;9.90;;
23078;SDS011;11707;50.830;4.364;2023-04-30T00:11:02;14.75;;;9.82;;
23078;SDS011;11707;50.830;4.364;2023-04-30T00:13:27;14.35;;;9.05;;
23078;SDS011;11707;50.830;4.364;2023-04-30T00:15:53;12.85;;;9.30;;
23078;SDS011;11707;50.830;4.364;2023-04-30T00:18:19;13.18;;;9.90;;
23078;SDS011;11707;50.830;4.364;2023-04-30T00:20:46;13.93;;;8.80;;
23078;SDS011;11707;50.830;4.364;2023-04-30T00:23:12;11.18;;;8.93;;
23078;SDS011;11707;50.830;4.364;2023-04-30T00:25:38;12.02;;;9.15;;
23078;SDS011;11707;50.830;4.364;2023-04-30T00:28:04;15.07;;;9.50;;
23078;SDS011;11707;50.830;4.364;2023-04-30T00:30:29;11.55;;;7.53;;
23078;SDS011;11707;50.830;4.364;2023-04-30T00:32:56;12.70;;;8.20;;
23078;SDS011;11707;50.830;4.364;2023-04-30T00:35:24;10.25;;;8.00;;
23078;SDS011;11707;50.830;4.364;2023-04-30T00:37:49;10.60;;;8.27;;
23078;SDS011;11707;50.830;4.364;2023-04-30T00:40:15;13.20;;;8.10;;
23078;SDS011;11707;50.830;4.364;2023-04-30T00:42:41;10.93;;;7.25;;
23078;SDS011;11707;50.830;4.364;2023-04-30T00:45:07;14.27;;;7.95;;
23078;SDS011;11707;50.830;4.364;2023-04-30T00:47:33;10.30;;;7.43;;
23078;SDS011;11707;50.830;4.364;2023-04-30T00:50:01;14.65;;;7.22;;
23078;SDS011;11707;50.830;4.364;2023-04-30T00:52:29;11.98;;;6.82;;
23078;SDS011;11707;50.830;4.364;2023-04-30T00:54:55;10.75;;;7.40;;
23078;SDS011;11707;50.830;4.364;2023-04-30T00:57:21;11.82;;;6.80;;
23078;SDS011;11707;50.830;4.364;2023-04-30T00:59:50;9.20;;;6.63;;
23078;SDS011;11707;50.830;4.364;2023-04-30T01:02:16;10.85;;;7.72;;
23078;SDS011;11707;50.830;4.364;2023-04-30T01:04:44;11.15;;;7.38;;
23078;SDS011;11707;50.830;4.364;2023-04-30T01:07:10;10.18;;;8.52;;
23078;SDS011;11707;50.830;4.364;2023-04-30T01:09:39;10.70;;;7.38;;
23078;SDS011;11707;50.830;4.364;2023-04-30T01:15:08;10.85;;;7.65;;
23078;SDS011;11707;50.830;4.364;2023-04-30T01:17:56;9.57;;;7.07;;
23078;SDS011;11707;50.830;4.364;2023-04-30T01:20:30;11.90;;;6.75;;
23078;SDS011;11707;50.830;4.364;2023-04-30T01:28:36;8.85;;;6.43;;
23078;SDS011;11707;50.830;4.364;2023-04-30T01:31:17;10.05;;;6.57;;
23078;SDS011;11707;50.830;4.364;2023-04-30T01:33:47;10.63;;;6.90;;
23078;SDS011;11707;50.830;4.364;2023-04-30T01:36:25;10.85;;;6.43;;
23078;SDS011;11707;50.830;4.364;2023-04-30T01:41:46;8.98;;;6.97;;
23078;SDS011;11707;50.830;4.364;2023-04-30T01:46:55;8.35;;;6.00;;
23078;SDS011;11707;50.830;4.364;2023-04-30T01:54:48;12.75;;;7.68;;
23078;SDS011;11707;50.830;4.364;2023-04-30T01:57:20;11.02;;;7.18;;
23078;SDS011;11707;50.830;4.364;2023-04-30T01:59:56;10.82;;;7.13;;
23078;SDS011;11707;50.830;4.364;2023-04-30T02:02:22;10.40;;;6.80;;
23078;SDS011;11707;50.830;4.364;2023-04-30T02:04:48;11.50;;;7.70;;
23078;SDS011;11707;50.830;4.364;2023-04-30T02:07:26;12.88;;;6.97;;
23078;SDS011;11707;50.830;4.364;2023-04-30T02:10:02;11.38;;;7.68;;
23078;SDS011;11707;50.830;4.364;2023-04-30T02:12:28;12.60;;;7.65;;
23078;SDS011;11707;50.830;4.364;2023-04-30T02:14:54;10.65;;;7.38;;
23078;SDS011;11707;50.830;4.364;2023-04-30T02:17:20;11.85;;;7.25;;
23078;SDS011;11707;50.830;4.364;2023-04-30T02:19:45;10.27;;;6.97;;
23078;SDS011;11707;50.830;4.364;2023-04-30T02:22:11;15.40;;;8.40;;
23078;SDS011;11707;50.830;4.364;2023-04-30T02:24:37;11.55;;;6.47;;
23078;SDS011;11707;50.830;4.364;2023-04-30T02:27:03;11.68;;;7.53;;
23078;SDS011;11707;50.830;4.364;2023-04-30T02:29:28;9.10;;;7.13;;
23078;SDS011;11707;50.830;4.364;2023-04-30T02:31:57;15.77;;;7.95;;
23078;SDS011;11707;50.830;4.364;2023-04-30T02:34:23;11.02;;;8.27;;
23078;SDS011;11707;50.830;4.364;2023-04-30T02:36:49;11.07;;;7.50;;
23078;SDS011;11707;50.830;4.364;2023-04-30T02:39:15;12.70;;;7.72;;
23078;SDS011;11707;50.830;4.364;2023-04-30T02:41:43;12.50;;;7.75;;
23078;SDS011;11707;50.830;4.364;2023-04-30T02:44:09;10.20;;;7.53;;
23078;SDS011;11707;50.830;4.364;2023-04-30T02:46:35;9.63;;;6.65;;
23078;SDS011;11707;50.830;4.364;2023-04-30T02:49:03;11.98;;;7.85;;
23078;SDS011;11707;50.830;4.364;2023-04-30T02:51:29;15.80;;;7.80;;
23078;SDS011;11707;50.830;4.364;2023-04-30T02:53:59;14.52;;;7.80;;
23078;SDS011;11707;50.830;4.364;2023-04-30T02:56:25;10.68;;;6.38;;
23078;SDS011;11707;50.830;4.364;2023-04-30T02:58:50;10.15;;;7.45;;
23078;SDS011;11707;50.830;4.364;2023-04-30T03:01:18;10.10;;;6.35;;
23078;SDS011;11707;50.830;4.364;2023-04-30T03:03:44;12.00;;;7.20;;
23078;SDS011;11707;50.830;4.364;2023-04-30T03:06:10;8.93;;;6.68;;
23078;SDS011;11707;50.830;4.364;2023-04-30T03:08:36;12.48;;;6.60;;
23078;SDS011;11707;50.830;4.364;2023-04-30T03:11:01;8.38;;;6.40;;
23078;SDS011;11707;50.830;4.364;2023-04-30T03:13:27;9.45;;;6.82;;
23078;SDS011;11707;50.830;4.364;2023-04-30T03:16:11;12.48;;;7.25;;
23078;SDS011;11707;50.830;4.364;2023-04-30T03:18:39;12.45;;;7.05;;
23078;SDS011;11707;50.830;4.364;2023-04-30T03:21:04;13.95;;;7.57;;
23078;SDS011;11707;50.830;4.364;2023-04-30T03:23:33;11.70;;;7.88;;
23078;SDS011;11707;50.830;4.364;2023-04-30T03:25:59;13.55;;;8.07;;
23078;SDS011;11707;50.830;4.364;2023-04-30T03:28:26;10.07;;;7.80;;
23078;SDS011;11707;50.830;4.364;2023-04-30T03:30:55;13.02;;;8.48;;
23078;SDS011;11707;50.830;4.364;2023-04-30T03:33:20;8.68;;;6.93;;
23078;SDS011;11707;50.830;4.364;2023-04-30T03:35:48;16.63;;;7.53;;
23078;SDS011;11707;50.830;4.364;2023-04-30T03:38:15;9.32;;;6.85;;
23078;SDS011;11707;50.830;4.364;2023-04-30T03:40:41;9.93;;;7.43;;
23078;SDS011;11707;50.830;4.364;2023-04-30T03:43:07;11.52;;;7.82;;
23078;SDS011;11707;50.830;4.364;2023-04-30T03:45:35;10.68;;;7.45;;
23078;SDS011;11707;50.830;4.364;2023-04-30T03:48:01;12.82;;;8.13;;
23078;SDS011;11707;50.830;4.364;2023-04-30T03:50:27;12.50;;;8.18;;
23078;SDS011;11707;50.830;4.364;2023-04-30T03:52:52;12.00;;;8.63;;
23078;SDS011;11707;50.830;4.364;2023-04-30T03:55:18;15.43;;;7.68;;
23078;SDS011;11707;50.830;4.364;2023-04-30T03:57:44;10.15;;;7.90;;
23078;SDS011;11707;50.830;4.364;2023-04-30T04:00:12;12.43;;;8.27;;
23078;SDS011;11707;50.830;4.364;2023-04-30T04:02:43;12.27;;;8.02;;
23078;SDS011;11707;50.830;4.364;2023-04-30T04:05:14;14.93;;;8.90;;
23078;SDS011;11707;50.830;4.364;2023-04-30T04:07:40;12.90;;;7.88;;
23078;SDS011;11707;50.830;4.364;2023-04-30T04:10:06;11.30;;;9.30;;
23078;SDS011;11707;50.830;4.364;2023-04-30T04:12:34;10.95;;;8.88;;
23078;SDS011;11707;50.830;4.364;2023-04-30T04:15:02;12.75;;;8.77;;
23078;SDS011;11707;50.830;4.364;2023-04-30T04:17:31;15.55;;;8.65;;
23078;SDS011;11707;50.830;4.364;2023-04-30T04:19:57;14.55;;;8.80;;
23078;SDS011;11707;50.830;4.364;2023-04-30T04:22:23;15.20;;;9.43;;
23078;SDS011;11707;50.830;4.364;2023-04-30T04:24:52;13.48;;;10.07;;
23078;SDS011;11707;50.830;4.364;2023-04-30T04:27:20;12.60;;;9.05;;
23078;SDS011;11707;50.830;4.364;2023-04-30T04:29:46;16.10;;;9.63;;
23078;SDS011;11707;50.830;4.364;2023-04-30T04:32:12;14.52;;;9.32;;
23078;SDS011;11707;50.830;4.364;2023-04-30T04:34:38;11.07;;;8.65;;
23078;SDS011;11707;50.830;4.364;2023-04-30T04:37:04;11.82;;;9.65;;
23078;SDS011;11707;50.830;4.364;2023-04-30T04:39:29;15.13;;;9.88;;
23078;SDS011;11707;50.830;4.364;2023-04-30T04:41:57;20.92;;;10.45;;
23078;SDS011;11707;50.830;4.364;2023-04-30T04:44:23;17.92;;;9.20;;
23078;SDS011;11707;50.830;4.364;2023-04-30T04:46:49;16.23;;;10.93;;
23078;SDS011;11707;50.830;4.364;2023-04-30T04:49:17;16.45;;;10.18;;
23078;SDS011;11707;50.830;4.364;2023-04-30T04:51:43;15.85;;;9.68;;
23078;SDS011;11707;50.830;4.364;2023-04-30T04:54:09;16.85;;;10.43;;
23078;SDS011;11707;50.830;4.364;2023-04-30T04:56:35;16.25;;;10.40;;
23078;SDS011;11707;50.830;4.364;2023-04-30T04:59:01;15.10;;;9.80;;
23078;SDS011;11707;50.830;4.364;2023-04-30T05:01:26;18.05;;;11.02;;
23078;SDS011;11707;50.830;4.364;2023-04-30T05:03:55;15.07;;;10.50;;
23078;SDS011;11707;50.830;4.364;2023-04-30T05:06:20;18.02;;;11.13;;
23078;SDS011;11707;50.830;4.364;2023-04-30T05:08:46;14.75;;;10.45;;
23078;SDS011;11707;50.830;4.364;2023-04-30T05:11:14;20.10;;;11.45;;
23078;SDS011;11707;50.830;4.364;2023-04-30T05:13:40;18.20;;;10.40;;
23078;SDS011;11707;50.830;4.364;2023-04-30T05:16:08;15.70;;;11.02;;
23078;SDS011;11707;50.830;4.364;2023-04-30T05:18:36;18.38;;;12.07;;
23078;SDS011;11707;50.830;4.364;2023-04-30T05:21:02;14.98;;;10.73;;
23078;SDS011;11707;50.830;4.364;2023-04-30T05:23:28;16.48;;;12.10;;
23078;SDS011;11707;50.830;4.364;2023-04-30T05:25:56;18.00;;;11.50;;
23078;SDS011;11707;50.830;4.364;2023-04-30T05:28:22;17.05;;;11.60;;
23078;SDS011;11707;50.830;4.364;2023-04-30T05:30:48;20.05;;;12.88;;
23078;SDS011;11707;50.830;4.364;2023-04-30T05:33:13;18.63;;;12.68;;
23078;SDS011;11707;50.830;4.364;2023-04-30T05:35:41;17.38;;;12.30;;
23078;SDS011;11707;50.830;4.364;2023-04-30T05:38:07;17.55;;;12.90;;
23078;SDS011;11707;50.830;4.364;2023-04-30T05:40:36;20.25;;;12.15;;
23078;SDS011;11707;50.830;4.364;2023-04-30T05:43:04;21.80;;;12.43;;
23078;SDS011;11707;50.830;4.364;2023-04-30T05:45:32;18.75;;;13.15;;
23078;SDS011;11707;50.830;4.364;2023-04-30T05:47:58;21.80;;;12.90;;
23078;SDS011;11707;50.830;4.364;2023-04-30T05:50:25;18.80;;;14.35;;
23078;SDS011;11707;50.830;4.364;2023-04-30T05:52:59;16.48;;;12.85;;
23078;SDS011;11707;50.830;4.364;2023-04-30T05:55:24;21.10;;;14.27;;
23078;SDS011;11707;50.830;4.364;2023-04-30T05:57:50;19.77;;;14.52;;
23078;SDS011;11707;50.830;4.364;2023-04-30T06:00:15;17.33;;;12.65;;
23078;SDS011;11707;50.830;4.364;2023-04-30T06:02:41;15.35;;;13.43;;
23078;SDS011;11707;50.830;4.364;2023-04-30T06:05:07;19.38;;;14.55;;
23078;SDS011;11707;50.830;4.364;2023-04-30T06:07:35;22.55;;;14.93;;
23078;SDS011;11707;50.830;4.364;2023-04-30T06:10:02;18.35;;;14.10;;
23078;SDS011;11707;50.830;4.364;2023-04-30T06:12:28;17.85;;;13.32;;
23078;SDS011;11707;50.830;4.364;2023-04-30T06:14:53;20.65;;;15.25;;
23078;SDS011;11707;50.830;4.364;2023-04-30T06:17:22;20.60;;;14.77;;
23078;SDS011;11707;50.830;4.364;2023-04-30T06:19:48;21.25;;;14.90;;
23078;SDS011;11707;50.830;4.364;2023-04-30T06:22:13;19.23;;;15.00;;
23078;SDS011;11707;50.830;4.364;2023-04-30T06:24:39;21.88;;;14.77;;
23078;SDS011;11707;50.830;4.364;2023-04-30T06:27:05;20.70;;;15.18;;
23078;SDS011;11707;50.830;4.364;2023-04-30T06:29:30;22.50;;;14.82;;
23078;SDS011;11707;50.830;4.364;2023-04-30T06:31:58;26.60;;;15.88;;
23078;SDS011;11707;50.830;4.364;2023-04-30T06:34:24;21.05;;;15.77;;
23078;SDS011;11707;50.830;4.364;2023-04-30T06:36:50;23.25;;;14.63;;
23078;SDS011;11707;50.830;4.364;2023-04-30T06:39:16;20.65;;;14.30;;
23078;SDS011;11707;50.830;4.364;2023-04-30T06:41:42;18.95;;;15.32;;
23078;SDS011;11707;50.830;4.364;2023-04-30T06:44:07;22.58;;;16.27;;
23078;SDS011;11707;50.830;4.364;2023-04-30T06:46:33;26.33;;;15.70;;
23078;SDS011;11707;50.830;4.364;2023-04-30T06:48:59;20.48;;;15.57;;
23078;SDS011;11707;50.830;4.364;2023-04-30T06:51:25;21.20;;;17.05;;
23078;SDS011;11707;50.830;4.364;2023-04-30T06:53:51;21.80;;;15.73;;
23078;SDS011;11707;50.830;4.364;2023-04-30T06:56:17;22.08;;;16.20;;
23078;SDS011;11707;50.830;4.364;2023-04-30T06:58:48;28.23;;;16.70;;
23078;SDS011;11707;50.830;4.364;2023-04-30T07:01:16;25.33;;;17.23;;
23078;SDS011;11707;50.830;4.364;2023-04-30T07:03:44;22.27;;;16.60;;
23078;SDS011;11707;50.830;4.364;2023-04-30T07:06:12;18.48;;;14.45;;
23078;SDS011;11707;50.830;4.364;2023-04-30T07:08:38;22.90;;;16.30;;
23078;SDS011;11707;50.830;4.364;2023-04-30T07:11:05;22.67;;;15.68;;
23078;SDS011;11707;50.830;4.364;2023-04-30T07:13:31;21.52;;;16.00;;
23078;SDS011;11707;50.830;4.364;2023-04-30T07:15:59;23.75;;;17.02;;
23078;SDS011;11707;50.830;4.364;2023-04-30T07:18:27;30.08;;;21.77;;
23078;SDS011;11707;50.830;4.364;2023-04-30T07:20:55;23.23;;;16.60;;
23078;SDS011;11707;50.830;4.364;2023-04-30T07:23:20;23.98;;;16.70;;
23078;SDS011;11707;50.830;4.364;2023-04-30T07:25:48;26.98;;;18.05;;
23078;SDS011;11707;50.830;4.364;2023-04-30T07:28:14;24.08;;;17.00;;
23078;SDS011;11707;50.830;4.364;2023-04-30T07:30:40;19.80;;;15.77;;
23078;SDS011;11707;50.830;4.364;2023-04-30T07:33:06;23.48;;;16.83;;
23078;SDS011;11707;50.830;4.364;2023-04-30T07:35:34;19.85;;;15.85;;
23078;SDS011;11707;50.830;4.364;2023-04-30T07:38:03;23.25;;;17.20;;
23078;SDS011;11707;50.830;4.364;2023-04-30T07:40:31;22.98;;;16.70;;
23078;SDS011;11707;50.830;4.364;2023-04-30T07:42:57;22.45;;;17.17;;
23078;SDS011;11707;50.830;4.364;2023-04-30T07:45:25;20.38;;;16.48;;
23078;SDS011;11707;50.830;4.364;2023-04-30T07:47:51;25.33;;;17.38;;
23078;SDS011;11707;50.830;4.364;2023-04-30T07:50:16;25.23;;;17.25;;
23078;SDS011;11707;50.830;4.364;2023-04-30T07:52:42;21.73;;;16.25;;
23078;SDS011;11707;50.830;4.364;2023-04-30T07:55:08;21.88;;;17.35;;
23078;SDS011;11707;50.830;4.364;2023-04-30T07:57:34;21.30;;;16.63;;
23078;SDS011;11707;50.830;4.364;2023-04-30T08:00:00;24.10;;;17.88;;
23078;SDS011;11707;50.830;4.364;2023-04-30T08:02:25;22.05;;;16.98;;
23078;SDS011;11707;50.830;4.364;2023-04-30T08:04:51;25.92;;;17.20;;
23078;SDS011;11707;50.830;4.364;2023-04-30T08:07:17;22.63;;;17.50;;
23078;SDS011;11707;50.830;4.364;2023-04-30T08:09:44;22.25;;;16.50;;
23078;SDS011;11707;50.830;4.364;2023-04-30T08:12:10;27.58;;;15.68;;
23078;SDS011;11707;50.830;4.364;2023-04-30T08:14:36;20.50;;;16.13;;
23078;SDS011;11707;50.830;4.364;2023-04-30T08:17:02;23.73;;;15.93;;
23078;SDS011;11707;50.830;4.364;2023-04-30T08:19:27;21.23;;;16.02;;
23078;SDS011;11707;50.830;4.364;2023-04-30T08:21:53;22.75;;;15.90;;
23078;SDS011;11707;50.830;4.364;2023-04-30T08:24:19;17.50;;;14.30;;
23078;SDS011;11707;50.830;4.364;2023-04-30T08:26:47;21.17;;;14.48;;
23078;SDS011;11707;50.830;4.364;2023-04-30T08:29:13;19.10;;;13.82;;
23078;SDS011;11707;50.830;4.364;2023-04-30T08:31:38;18.08;;;14.27;;
23078;SDS011;11707;50.830;4.364;2023-04-30T08:34:04;18.52;;;14.10;;
23078;SDS011;11707;50.830;4.364;2023-04-30T08:36:30;17.25;;;14.13;;
23078;SDS011;11707;50.830;4.364;2023-04-30T08:38:56;18.20;;;13.88;;
23078;SDS011;11707;50.830;4.364;2023-04-30T08:41:24;23.02;;;14.27;;
23078;SDS011;11707;50.830;4.364;2023-04-30T08:43:56;17.98;;;13.02;;
23078;SDS011;11707;50.830;4.364;2023-04-30T08:46:26;15.23;;;12.55;;
23078;SDS011;11707;50.830;4.364;2023-04-30T08:48:55;21.08;;;14.02;;
23078;SDS011;11707;50.830;4.364;2023-04-30T08:51:21;19.73;;;14.52;;
23078;SDS011;11707;50.830;4.364;2023-04-30T08:53:49;18.10;;;11.73;;
23078;SDS011;11707;50.830;4.364;2023-04-30T08:56:18;17.25;;;12.40;;
23078;SDS011;11707;50.830;4.364;2023-04-30T08:58:45;20.13;;;11.95;;
23078;SDS011;11707;50.830;4.364;2023-04-30T09:01:10;18.92;;;10.82;;
23078;SDS011;11707;50.830;4.364;2023-04-30T09:03:37;14.80;;;10.15;;
23078;SDS011;11707;50.830;4.364;2023-04-30T09:06:05;17.42;;;10.95;;
23078;SDS011;11707;50.830;4.364;2023-04-30T09:08:40;10.77;;;9.18;;
23078;SDS011;11707;50.830;4.364;2023-04-30T09:13:56;10.43;;;8.05;;
23078;SDS011;11707;50.830;4.364;2023-04-30T09:16:24;13.10;;;9.23;;
23078;SDS011;11707;50.830;4.364;2023-04-30T09:18:50;15.70;;;9.80;;
23078;SDS011;11707;50.830;4.364;2023-04-30T09:21:33;11.45;;;8.27;;
23078;SDS011;11707;50.830;4.364;2023-04-30T09:24:03;14.43;;;8.57;;
23078;SDS011;11707;50.830;4.364;2023-04-30T09:29:00;14.60;;;7.75;;
23078;SDS011;11707;50.830;4.364;2023-04-30T09:31:32;11.65;;;7.80;;
23078;SDS011;11707;50.830;4.364;2023-04-30T09:34:02;16.50;;;8.85;;
23078;SDS011;11707;50.830;4.364;2023-04-30T09:36:28;13.98;;;8.90;;
23078;SDS011;11707;50.830;4.364;2023-04-30T09:38:54;12.95;;;9.75;;
23078;SDS011;11707;50.830;4.364;2023-04-30T09:41:23;13.02;;;9.02;;
23078;SDS011;11707;50.830;4.364;2023-04-30T09:43:51;12.43;;;9.25;;
23078;SDS011;11707;50.830;4.364;2023-04-30T09:46:21;11.95;;;8.82;;
23078;SDS011;11707;50.830;4.364;2023-04-30T09:48:55;13.95;;;9.65;;
23078;SDS011;11707;50.830;4.364;2023-04-30T09:51:25;13.02;;;9.50;;
23078;SDS011;11707;50.830;4.364;2023-04-30T09:53:51;11.50;;;9.25;;
23078;SDS011;11707;50.830;4.364;2023-04-30T09:56:21;14.43;;;8.80;;
23078;SDS011;11707;50.830;4.364;2023-04-30T09:58:49;12.95;;;9.57;;
23078;SDS011;11707;50.830;4.364;2023-04-30T10:01:17;11.52;;;8.45;;
23078;SDS011;11707;50.830;4.364;2023-04-30T10:03:47;9.05;;;7.45;;
23078;SDS011;11707;50.830;4.364;2023-04-30T10:06:13;12.73;;;7.38;;
23078;SDS011;11707;50.830;4.364;2023-04-30T10:08:41;10.02;;;6.88;;
23078;SDS011;11707;50.830;4.364;2023-04-30T10:11:11;8.50;;;6.22;;
23078;SDS011;11707;50.830;4.364;2023-04-30T10:13:50;11.38;;;7.63;;
23078;SDS011;11707;50.830;4.364;2023-04-30T10:16:26;12.77;;;6.85;;
23078;SDS011;11707;50.830;4.364;2023-04-30T10:21:58;9.10;;;6.00;;
23078;SDS011;11707;50.830;4.364;2023-04-30T10:24:25;7.10;;;5.55;;
23078;SDS011;11707;50.830;4.364;2023-04-30T10:26:51;8.95;;;5.78;;
23078;SDS011;11707;50.830;4.364;2023-04-30T10:29:17;6.80;;;5.60;;
23078;SDS011;11707;50.830;4.364;2023-04-30T10:31:47;7.68;;;5.63;;
23078;SDS011;11707;50.830;4.364;2023-04-30T10:37:00;8.77;;;6.10;;
23078;SDS011;11707;50.830;4.364;2023-04-30T10:39:37;7.63;;;5.13;;
23078;SDS011;11707;50.830;4.364;2023-04-30T10:42:04;8.45;;;4.95;;
23078;SDS011;11707;50.830;4.364;2023-04-30T10:44:31;6.20;;;4.88;;
23078;SDS011;11707;50.830;4.364;2023-04-30T10:46:59;7.78;;;5.18;;
23078;SDS011;11707;50.830;4.364;2023-04-30T10:49:28;7.97;;;5.63;;
23078;SDS011;11707;50.830;4.364;2023-04-30T10:51:57;5.38;;;4.55;;
23078;SDS011;11707;50.830;4.364;2023-04-30T10:54:27;7.95;;;6.05;;
23078;SDS011;11707;50.830;4.364;2023-04-30T10:57:10;9.55;;;7.07;;
23078;SDS011;11707;50.830;4.364;2023-04-30T10:59:42;8.33;;;5.83;;
23078;SDS011;11707;50.830;4.364;2023-04-30T11:02:15;9.32;;;5.25;;
23078;SDS011;11707;50.830;4.364;2023-04-30T11:07:32;7.55;;;4.57;;
23078;SDS011;11707;50.830;4.364;2023-04-30T11:10:00;4.47;;;3.85;;
23078;SDS011;11707;50.830;4.364;2023-04-30T11:12:26;9.18;;;4.18;;
23078;SDS011;11707;50.830;4.364;2023-04-30T11:15:00;7.00;;;4.53;;
23078;SDS011;11707;50.830;4.364;2023-04-30T11:17:30;8.30;;;5.70;;
23078;SDS011;11707;50.830;4.364;2023-04-30T11:19:58;5.95;;;4.47;;
23078;SDS011;11707;50.830;4.364;2023-04-30T11:22:28;6.50;;;4.40;;
23078;SDS011;11707;50.830;4.364;2023-04-30T11:25:07;7.35;;;4.80;;
23078;SDS011;11707;50.830;4.364;2023-04-30T11:27:37;6.93;;;4.60;;
23078;SDS011;11707;50.830;4.364;2023-04-30T11:30:12;5.93;;;4.25;;
23078;SDS011;11707;50.830;4.364;2023-04-30T11:32:39;6.25;;;4.63;;
23078;SDS011;11707;50.830;4.364;2023-04-30T11:35:07;6.32;;;4.35;;
23078;SDS011;11707;50.830;4.364;2023-04-30T11:37:34;5.80;;;4.20;;
23078;SDS011;11707;50.830;4.364;2023-04-30T11:40:11;7.07;;;4.95;;
23078;SDS011;11707;50.830;4.364;2023-04-30T11:42:38;6.68;;;3.97;;
23078;SDS011;11707;50.830;4.364;2023-04-30T11:47:45;6.53;;;5.00;;
23078;SDS011;11707;50.830;4.364;2023-04-30T11:50:12;5.72;;;4.72;;
23078;SDS011;11707;50.830;4.364;2023-04-30T11:52:49;7.07;;;5.05;;
23078;SDS011;11707;50.830;4.364;2023-04-30T11:55:17;8.65;;;6.00;;
23078;SDS011;11707;50.830;4.364;2023-04-30T11:57:45;7.68;;;4.68;;
23078;SDS011;11707;50.830;4.364;2023-04-30T12:00:15;5.35;;;3.88;;
23078;SDS011;11707;50.830;4.364;2023-04-30T12:02:43;9.90;;;4.18;;
23078;SDS011;11707;50.830;4.364;2023-04-30T12:05:11;6.13;;;4.30;;
23078;SDS011;11707;50.830;4.364;2023-04-30T12:07:43;6.63;;;4.38;;
23078;SDS011;11707;50.830;4.364;2023-04-30T12:10:10;6.55;;;3.63;;
23078;SDS011;11707;50.830;4.364;2023-04-30T12:12:36;6.20;;;3.80;;
23078;SDS011;11707;50.830;4.364;2023-04-30T12:15:14;7.82;;;3.90;;
23078;SDS011;11707;50.830;4.364;2023-04-30T12:17:41;6.10;;;4.03;;
23078;SDS011;11707;50.830;4.364;2023-04-30T12:20:08;6.78;;;4.03;;
23078;SDS011;11707;50.830;4.364;2023-04-30T12:22:35;6.97;;;4.60;;
23078;SDS011;11707;50.830;4.364;2023-04-30T12:25:04;5.22;;;4.32;;
23078;SDS011;11707;50.830;4.364;2023-04-30T12:27:32;5.78;;;4.38;;
23078;SDS011;11707;50.830;4.364;2023-04-30T12:30:08;6.53;;;4.20;;
23078;SDS011;11707;50.830;4.364;2023-04-30T12:32:41;4.68;;;3.60;;
23078;SDS011;11707;50.830;4.364;2023-04-30T12:35:12;5.60;;;4.72;;
23078;SDS011;11707;50.830;4.364;2023-04-30T12:37:47;9.05;;;4.50;;
23078;SDS011;11707;50.830;4.364;2023-04-30T12:40:20;8.80;;;4.03;;
23078;SDS011;11707;50.830;4.364;2023-04-30T12:42:50;4.72;;;3.65;;
23078;SDS011;11707;50.830;4.364;2023-04-30T12:48:15;6.30;;;3.83;;
23078;SDS011;11707;50.830;4.364;2023-04-30T12:50:46;5.78;;;3.85;;
23078;SDS011;11707;50.830;4.364;2023-04-30T12:53:17;5.68;;;3.78;;
23078;SDS011;11707;50.830;4.364;2023-04-30T12:55:43;4.82;;;3.70;;
23078;SDS011;11707;50.830;4.364;2023-04-30T12:58:31;5.50;;;4.30;;
23078;SDS011;11707;50.830;4.364;2023-04-30T13:01:00;4.95;;;2.95;;
23078;SDS011;11707;50.830;4.364;2023-04-30T13:03:25;4.40;;;3.42;;
23078;SDS011;11707;50.830;4.364;2023-04-30T13:05:51;4.20;;;3.45;;
23078;SDS011;11707;50.830;4.364;2023-04-30T13:08:18;5.53;;;3.40;;
23078;SDS011;11707;50.830;4.364;2023-04-30T13:10:47;4.50;;;2.92;;
23078;SDS011;11707;50.830;4.364;2023-04-30T13:13:14;4.40;;;2.90;;
23078;SDS011;11707;50.830;4.364;2023-04-30T13:15:43;3.75;;;2.85;;
23078;SDS011;11707;50.830;4.364;2023-04-30T13:18:12;4.57;;;2.88;;
23078;SDS011;11707;50.830;4.364;2023-04-30T13:20:39;4.05;;;2.58;;
23078;SDS011;11707;50.830;4.364;2023-04-30T13:23:05;4.15;;;3.13;;
23078;SDS011;11707;50.830;4.364;2023-04-30T13:25:31;4.93;;;3.10;;
23078;SDS011;11707;50.830;4.364;2023-04-30T13:27:58;4.30;;;2.58;;
23078;SDS011;11707;50.830;4.364;2023-04-30T13:30:24;6.40;;;2.78;;
23078;SDS011;11707;50.830;4.364;2023-04-30T13:32:50;2.85;;;2.53;;
23078;SDS011;11707;50.830;4.364;2023-04-30T13:35:16;4.43;;;2.88;;
23078;SDS011;11707;50.830;4.364;2023-04-30T13:37:42;7.18;;;2.95;;
23078;SDS011;11707;50.830;4.364;2023-04-30T13:40:08;3.75;;;2.92;;
23078;SDS011;11707;50.830;4.364;2023-04-30T13:42:37;3.47;;;2.78;;
23078;SDS011;11707;50.830;4.364;2023-04-30T13:45:06;4.68;;;3.10;;
23078;SDS011;11707;50.830;4.364;2023-04-30T13:47:32;5.07;;;2.88;;
23078;SDS011;11707;50.830;4.364;2023-04-30T13:49:59;5.00;;;3.05;;
23078;SDS011;11707;50.830;4.364;2023-04-30T13:52:27;6.45;;;3.10;;
23078;SDS011;11707;50.830;4.364;2023-04-30T13:54:53;4.10;;;3.22;;
23078;SDS011;11707;50.830;4.364;2023-04-30T13:57:22;6.95;;;3.25;;
23078;SDS011;11707;50.830;4.364;2023-04-30T13:59:48;4.65;;;3.40;;
23078;SDS011;11707;50.830;4.364;2023-04-30T14:02:14;4.20;;;2.85;;
23078;SDS011;11707;50.830;4.364;2023-04-30T14:04:40;5.38;;;2.35;;
23078;SDS011;11707;50.830;4.364;2023-04-30T14:07:06;5.05;;;3.05;;
23078;SDS011;11707;50.830;4.364;2023-04-30T14:09:31;3.67;;;2.67;;
23078;SDS011;11707;50.830;4.364;2023-04-30T14:11:57;4.15;;;2.85;;
23078;SDS011;11707;50.830;4.364;2023-04-30T14:14:26;5.35;;;2.90;;
23078;SDS011;11707;50.830;4.364;2023-04-30T14:16:52;3.97;;;2.75;;
23078;SDS011;11707;50.830;4.364;2023-04-30T14:19:19;2.60;;;2.30;;
23078;SDS011;11707;50.830;4.364;2023-04-30T14:21:46;3.63;;;2.47;;
23078;SDS011;11707;50.830;4.364;2023-04-30T14:24:12;3.13;;;2.70;;
23078;SDS011;11707;50.830;4.364;2023-04-30T14:26:38;4.53;;;2.33;;
23078;SDS011;11707;50.830;4.364;2023-04-30T14:29:05;4.05;;;1.92;;
23078;SDS011;11707;50.830;4.364;2023-04-30T14:31:31;5.45;;;2.40;;
23078;SDS011;11707;50.830;4.364;2023-04-30T14:33:57;3.95;;;2.13;;
23078;SDS011;11707;50.830;4.364;2023-04-30T14:36:23;3.47;;;2.03;;
23078;SDS011;11707;50.830;4.364;2023-04-30T14:38:48;3.65;;;2.60;;
23078;SDS011;11707;50.830;4.364;2023-04-30T14:41:14;3.92;;;2.38;;
23078;SDS011;11707;50.830;4.364;2023-04-30T14:43:40;2.67;;;1.92;;
23078;SDS011;11707;50.830;4.364;2023-04-30T14:46:06;3.03;;;2.10;;
23078;SDS011;11707;50.830;4.364;2023-04-30T14:48:31;4.85;;;2.35;;
23078;SDS011;11707;50.830;4.364;2023-04-30T14:50:57;5.57;;;2.42;;
23078;SDS011;11707;50.830;4.364;2023-04-30T14:53:25;4.03;;;2.33;;
23078;SDS011;11707;50.830;4.364;2023-04-30T14:55:55;3.80;;;2.20;;
23078;SDS011;11707;50.830;4.364;2023-04-30T14:58:21;3.88;;;2.75;;
23078;SDS011;11707;50.830;4.364;2023-04-30T15:00:47;5.25;;;2.17;;
23078;SDS011;11707;50.830;4.364;2023-04-30T15:03:13;5.25;;;2.13;;
23078;SDS011;11707;50.830;4.364;2023-04-30T15:05:45;3.22;;;2.30;;
23078;SDS011;11707;50.830;4.364;2023-04-30T15:08:11;5.40;;;2.35;;
23078;SDS011;11707;50.830;4.364;2023-04-30T15:10:37;4.82;;;2.53;;
23078;SDS011;11707;50.830;4.364;2023-04-30T15:13:02;4.93;;;2.30;;
23078;SDS011;11707;50.830;4.364;2023-04-30T15:15:28;4.70;;;3.33;;
23078;SDS011;11707;50.830;4.364;2023-04-30T15:17:55;4.53;;;3.10;;